Time;durP1;ratioP1;P1;durP2;ratioP2;P2;SDS_P1;SDS_P2;PMS_P1;PMS_P2;Temp;Humidity;BMP_temperature;BMP_pressure;BME280_temperature;BME280_humidity;BME280_pressure;Samples;Min_cycle;Max_cycle;Signal;HPM_P1;HPM_P2
2023/09/08 00:00:22;;;;;;;12.30;11.70;;;;;;;;;;5082929;28;20033;-62
2023/09/08 00:02:47;;;;;;;11.20;10.70;;;;;;;;;;5083822;28;20023;-63
2023/09/08 00:05:13;;;;;;;11.15;10.65;;;;;;;;;;5085237;28;20040;-64
2023/09/08 00:07:38;;;;;;;11.07;10.57;;;;;;;;;;5087208;28;20060;-63
2023/09/08 00:10:03;;;;;;;11.07;10.57;;;;;;;;;;5090159;28;20028;-63
2023/09/08 00:12:29;;;;;;;11.20;10.70;;;;;;;;;;5086852;28;20046;-62
2023/09/08 00:14:54;;;;;;;10.73;10.23;;;;;;;;;;5085655;28;20052;-63
2023/09/08 00:17:19;;;;;;;11.15;10.65;;;;;;;;;;5085632;28;20024;-64
2023/09/08 00:19:45;;;;;;;11.00;10.50;;;;;;;;;;5086579;28;20029;-63
2023/09/08 00:22:10;;;;;;;11.20;10.70;;;;;;;;;;5091878;28;20012;-62
2023/09/08 00:24:35;;;;;;;11.32;10.82;;;;;;;;;;5087573;28;20020;-63
2023/09/08 00:27:01;;;;;;;11.05;10.55;;;;;;;;;;5087662;28;20016;-63
2023/09/08 00:29:26;;;;;;;11.70;11.20;;;;;;;;;;5085735;28;20106;-63
2023/09/08 00:31:51;;;;;;;10.98;10.48;;;;;;;;;;5088069;28;20024;-63
2023/09/08 00:34:17;;;;;;;10.85;10.35;;;;;;;;;;5087324;28;21879;-63
2023/09/08 00:36:42;;;;;;;11.40;10.90;;;;;;;;;;5083205;28;20023;-63
2023/09/08 00:39:07;;;;;;;10.90;10.40;;;;;;;;;;5088829;28;20017;-63
2023/09/08 00:41:33;;;;;;;11.00;10.50;;;;;;;;;;5088218;28;20023;-63
2023/09/08 00:43:58;;;;;;;11.07;10.57;;;;;;;;;;5085226;28;20112;-63
2023/09/08 00:46:24;;;;;;;11.20;10.70;;;;;;;;;;5088127;28;20043;-63
2023/09/08 00:48:50;;;;;;;10.88;10.38;;;;;;;;;;5088349;28;20392;-63
2023/09/08 00:51:15;;;;;;;10.95;10.45;;;;;;;;;;5085131;28;20016;-63
2023/09/08 00:53:40;;;;;;;11.32;10.82;;;;;;;;;;5080774;28;20020;-64
2023/09/08 00:56:06;;;;;;;10.80;10.30;;;;;;;;;;5081841;28;20074;-63
2023/09/08 00:58:32;;;;;;;10.82;10.32;;;;;;;;;;5080693;28;20099;-62
2023/09/08 01:00:57;;;;;;;10.70;10.20;;;;;;;;;;5086017;28;20020;-63
2023/09/08 01:03:23;;;;;;;11.25;10.75;;;;;;;;;;5081362;28;20027;-63
2023/09/08 01:05:48;;;;;;;10.85;10.35;;;;;;;;;;5087347;28;20141;-62
2023/09/08 01:08:14;;;;;;;10.63;10.13;;;;;;;;;;5081417;28;20025;-62
2023/09/08 01:10:41;;;;;;;10.82;10.32;;;;;;;;;;5087887;28;20030;-62
2023/09/08 01:13:07;;;;;;;10.90;10.40;;;;;;;;;;5085799;28;20012;-62
2023/09/08 01:15:32;;;;;;;11.25;10.75;;;;;;;;;;5086844;28;20031;-63
2023/09/08 01:17:57;;;;;;;10.95;10.45;;;;;;;;;;5083899;28;20044;-63
2023/09/08 01:20:25;;;;;;;11.00;10.50;;;;;;;;;;5081313;28;20029;-64
2023/09/08 01:23:06;;;;;;;11.05;10.55;;;;;;;;;;5087208;28;20402;-63
2023/09/08 01:25:32;;;;;;;11.15;10.65;;;;;;;;;;5084849;28;20097;-64
2023/09/08 01:28:00;;;;;;;11.20;10.70;;;;;;;;;;5083108;28;20048;-64
2023/09/08 01:30:27;;;;;;;10.75;10.25;;;;;;;;;;5089121;28;20020;-63
2023/09/08 01:32:54;;;;;;;10.80;10.30;;;;;;;;;;5085125;28;20020;-64
2023/09/08 01:35:19;;;;;;;11.60;11.10;;;;;;;;;;5085448;28;20104;-63
2023/09/08 01:37:45;;;;;;;10.93;10.43;;;;;;;;;;5086293;28;20138;-63
2023/09/08 01:40:10;;;;;;;10.70;10.20;;;;;;;;;;5079241;28;20052;-64
2023/09/08 01:42:36;;;;;;;10.93;10.43;;;;;;;;;;5079934;28;20018;-63
2023/09/08 01:45:01;;;;;;;11.10;10.60;;;;;;;;;;5088034;28;20653;-64
2023/09/08 01:47:29;;;;;;;10.73;10.23;;;;;;;;;;5086463;28;20502;-63
2023/09/08 01:49:54;;;;;;;11.05;10.55;;;;;;;;;;5082894;28;20093;-62
2023/09/08 01:52:19;;;;;;;11.05;10.55;;;;;;;;;;5075739;28;20021;-63
2023/09/08 01:54:44;;;;;;;11.00;10.50;;;;;;;;;;5085572;28;20387;-64
2023/09/08 01:57:10;;;;;;;10.80;10.30;;;;;;;;;;5079124;28;20020;-64
2023/09/08 01:59:36;;;;;;;11.18;10.68;;;;;;;;;;5082674;28;20081;-63
2023/09/08 02:02:02;;;;;;;11.20;10.70;;;;;;;;;;5087631;28;20114;-62
2023/09/08 02:04:27;;;;;;;11.32;10.82;;;;;;;;;;5083232;28;20579;-63
2023/09/08 02:06:53;;;;;;;10.32;9.85;;;;;;;;;;5081460;28;20051;-64
2023/09/08 02:09:18;;;;;;;10.32;9.85;;;;;;;;;;5086375;28;20024;-63
2023/09/08 02:11:43;;;;;;;10.88;10.38;;;;;;;;;;5086116;28;20024;-64
2023/09/08 02:14:08;;;;;;;10.88;10.38;;;;;;;;;;5082241;28;20117;-63
2023/09/08 02:16:34;;;;;;;11.07;10.57;;;;;;;;;;5085098;28;20364;-62
2023/09/08 02:18:59;;;;;;;11.10;10.60;;;;;;;;;;5079324;28;20028;-63
2023/09/08 02:21:24;;;;;;;10.82;10.32;;;;;;;;;;5081727;28;20021;-63
2023/09/08 02:23:50;;;;;;;11.10;10.60;;;;;;;;;;5083502;28;20024;-63
2023/09/08 02:26:15;;;;;;;10.85;10.35;;;;;;;;;;5081079;28;20032;-63
2023/09/08 02:28:40;;;;;;;10.82;10.32;;;;;;;;;;5084853;28;20032;-63
2023/09/08 02:31:06;;;;;;;11.20;10.70;;;;;;;;;;5084153;28;20116;-63
2023/09/08 02:33:31;;;;;;;10.75;10.25;;;;;;;;;;5085149;28;20111;-64
2023/09/08 02:36:01;;;;;;;10.73;10.23;;;;;;;;;;5078388;28;20116;-63
2023/09/08 02:38:26;;;;;;;10.80;10.30;;;;;;;;;;5082090;28;20020;-63
2023/09/08 02:40:52;;;;;;;10.90;10.40;;;;;;;;;;5080413;28;20026;-63
2023/09/08 02:43:17;;;;;;;10.77;10.27;;;;;;;;;;5081131;28;20546;-62
2023/09/08 02:45:43;;;;;;;10.80;10.30;;;;;;;;;;5084187;28;20092;-63
2023/09/08 02:48:08;;;;;;;10.90;10.40;;;;;;;;;;5081873;28;20442;-62
2023/09/08 02:50:33;;;;;;;10.88;10.38;;;;;;;;;;5081359;28;20035;-63
2023/09/08 02:52:58;;;;;;;11.00;10.50;;;;;;;;;;5081424;28;20027;-64
2023/09/08 02:55:24;;;;;;;11.20;10.70;;;;;;;;;;5084500;28;20020;-63
2023/09/08 02:57:49;;;;;;;11.40;10.90;;;;;;;;;;5082875;28;20042;-63
2023/09/08 03:00:14;;;;;;;11.07;10.57;;;;;;;;;;5082449;28;20029;-63
2023/09/08 03:02:40;;;;;;;10.60;10.10;;;;;;;;;;5083707;28;20024;-64
2023/09/08 03:05:05;;;;;;;10.60;10.10;;;;;;;;;;5085013;28;20055;-63
2023/09/08 03:07:33;;;;;;;10.90;10.40;;;;;;;;;;5078379;28;20028;-63
2023/09/08 03:09:58;;;;;;;11.57;11.05;;;;;;;;;;5084574;28;20032;-62
2023/09/08 03:12:23;;;;;;;10.82;10.32;;;;;;;;;;5077432;28;20032;-63
2023/09/08 03:14:49;;;;;;;11.10;10.60;;;;;;;;;;5077772;28;20029;-63
2023/09/08 03:17:14;;;;;;;11.57;11.07;;;;;;;;;;5088122;28;20020;-63
2023/09/08 03:19:40;;;;;;;11.40;10.90;;;;;;;;;;5086411;28;20105;-63
2023/09/08 03:22:05;;;;;;;11.10;10.60;;;;;;;;;;5085144;28;20034;-63
2023/09/08 03:24:30;;;;;;;11.05;10.55;;;;;;;;;;5088309;28;20368;-64
2023/09/08 03:26:57;;;;;;;10.93;10.43;;;;;;;;;;5091331;28;20077;-63
2023/09/08 03:29:23;;;;;;;11.27;10.77;;;;;;;;;;5093305;27;20174;-63
2023/09/08 03:31:48;;;;;;;10.80;10.30;;;;;;;;;;5082903;28;20126;-62
2023/09/08 03:34:14;;;;;;;11.23;10.73;;;;;;;;;;5086566;28;20024;-62
2023/09/08 03:36:39;;;;;;;10.93;10.43;;;;;;;;;;5087317;28;20061;-63
2023/09/08 03:39:04;;;;;;;11.20;10.70;;;;;;;;;;5085617;28;20664;-62
2023/09/08 03:41:30;;;;;;;11.20;10.70;;;;;;;;;;5081585;28;20333;-63
2023/09/08 03:43:56;;;;;;;10.90;10.40;;;;;;;;;;5090943;28;20180;-64
2023/09/08 03:46:21;;;;;;;11.02;10.52;;;;;;;;;;5083844;28;20490;-63
2023/09/08 03:48:46;;;;;;;10.80;10.30;;;;;;;;;;5089974;28;20032;-62
2023/09/08 03:51:12;;;;;;;11.18;10.68;;;;;;;;;;5089080;28;20031;-63
2023/09/08 03:53:37;;;;;;;10.68;10.18;;;;;;;;;;5084754;28;20027;-62
2023/09/08 03:56:02;;;;;;;10.70;10.20;;;;;;;;;;5083098;28;20028;-63
2023/09/08 03:58:28;;;;;;;11.18;10.68;;;;;;;;;;5084351;28;20078;-63
2023/09/08 04:00:54;;;;;;;10.90;10.40;;;;;;;;;;5088649;28;20100;-63
2023/09/08 04:03:19;;;;;;;11.18;10.68;;;;;;;;;;5089112;28;20024;-63
2023/09/08 04:05:44;;;;;;;11.23;10.73;;;;;;;;;;5084142;28;20028;-63
2023/09/08 04:08:09;;;;;;;11.88;11.38;;;;;;;;;;5085603;28;20472;-64
2023/09/08 04:10:35;;;;;;;11.50;11.00;;;;;;;;;;5084209;28;20127;-64
2023/09/08 04:13:00;;;;;;;11.07;10.57;;;;;;;;;;5084158;28;20426;-64
2023/09/08 04:15:25;;;;;;;11.45;10.95;;;;;;;;;;5087501;28;20017;-63
2023/09/08 04:17:51;;;;;;;11.27;10.77;;;;;;;;;;5090084;28;20026;-63
2023/09/08 04:20:16;;;;;;;11.50;11.00;;;;;;;;;;5090415;28;20050;-63
2023/09/08 04:22:41;;;;;;;11.18;10.68;;;;;;;;;;5087923;28;20431;-63
2023/09/08 04:25:07;;;;;;;11.18;10.68;;;;;;;;;;5084680;28;20436;-64
2023/09/08 04:27:32;;;;;;;11.40;10.90;;;;;;;;;;5082247;28;20440;-63
2023/09/08 04:29:59;;;;;;;11.20;10.70;;;;;;;;;;5081227;28;20028;-63
2023/09/08 04:32:24;;;;;;;11.60;11.10;;;;;;;;;;5082387;28;20032;-63
2023/09/08 04:34:49;;;;;;;11.60;11.10;;;;;;;;;;5089540;28;20028;-63
2023/09/08 04:37:15;;;;;;;11.60;11.10;;;;;;;;;;5091417;27;20494;-64
2023/09/08 04:39:40;;;;;;;11.80;11.30;;;;;;;;;;5085679;28;20020;-64
2023/09/08 04:42:06;;;;;;;11.82;11.32;;;;;;;;;;5081880;28;20276;-64
2023/09/08 04:44:31;;;;;;;12.10;11.60;;;;;;;;;;5079401;28;20470;-63
2023/09/08 04:46:56;;;;;;;11.57;11.07;;;;;;;;;;5086332;28;20024;-64
2023/09/08 04:49:22;;;;;;;11.80;11.30;;;;;;;;;;5085333;28;20605;-64
2023/09/08 04:51:47;;;;;;;11.77;11.27;;;;;;;;;;5087910;28;20020;-62
2023/09/08 04:54:12;;;;;;;11.93;11.43;;;;;;;;;;5085606;28;20020;-64
2023/09/08 04:56:41;;;;;;;11.85;11.35;;;;;;;;;;5087127;28;20032;-63
2023/09/08 04:59:06;;;;;;;11.73;11.23;;;;;;;;;;5079290;28;20021;-63
2023/09/08 05:01:32;;;;;;;11.93;11.43;;;;;;;;;;5082165;28;20495;-64
2023/09/08 05:03:59;;;;;;;12.00;11.50;;;;;;;;;;5080351;28;20432;-64
2023/09/08 05:06:24;;;;;;;12.02;11.52;;;;;;;;;;5081784;28;20043;-64
2023/09/08 05:08:49;;;;;;;12.20;11.70;;;;;;;;;;5075567;28;20357;-63
2023/09/08 05:11:15;;;;;;;11.63;11.13;;;;;;;;;;5087456;28;20042;-63
2023/09/08 05:13:40;;;;;;;11.98;11.48;;;;;;;;;;5087049;28;20024;-64
2023/09/08 05:16:12;;;;;;;12.27;11.77;;;;;;;;;;5083839;28;20024;-64
2023/09/08 05:18:38;;;;;;;12.20;11.70;;;;;;;;;;5084348;28;20257;-64
2023/09/08 05:21:03;;;;;;;12.52;11.93;;;;;;;;;;5081284;28;20280;-63
2023/09/08 05:23:29;;;;;;;12.15;11.65;;;;;;;;;;5084295;28;20016;-64
2023/09/08 05:25:54;;;;;;;12.05;11.55;;;;;;;;;;5083521;28;20016;-63
2023/09/08 05:28:20;;;;;;;12.27;11.77;;;;;;;;;;5082552;28;20112;-64
2023/09/08 05:30:45;;;;;;;11.90;11.40;;;;;;;;;;5089393;28;20020;-63
2023/09/08 05:33:10;;;;;;;12.10;11.60;;;;;;;;;;5083449;28;20452;-64
2023/09/08 05:35:36;;;;;;;12.00;11.50;;;;;;;;;;5080380;28;20028;-65
2023/09/08 05:38:01;;;;;;;12.17;11.67;;;;;;;;;;5087643;28;20260;-63
2023/09/08 05:40:26;;;;;;;12.30;11.80;;;;;;;;;;5080054;28;20749;-65
2023/09/08 05:42:52;;;;;;;12.20;11.70;;;;;;;;;;5085113;28;20032;-65
2023/09/08 05:45:17;;;;;;;12.18;11.68;;;;;;;;;;5086168;28;20330;-64
2023/09/08 05:47:42;;;;;;;12.00;11.50;;;;;;;;;;5088386;28;20216;-64
2023/09/08 05:50:08;;;;;;;12.07;11.57;;;;;;;;;;5081690;28;20287;-63
2023/09/08 05:52:33;;;;;;;12.15;11.65;;;;;;;;;;5083065;28;20278;-63
2023/09/08 05:54:58;;;;;;;11.97;11.47;;;;;;;;;;5086589;28;20051;-62
2023/09/08 05:57:24;;;;;;;12.05;11.55;;;;;;;;;;5080899;28;20024;-62
2023/09/08 05:59:49;;;;;;;12.30;11.80;;;;;;;;;;5086526;28;20065;-62
2023/09/08 06:02:14;;;;;;;11.95;11.45;;;;;;;;;;5082214;28;20032;-63
2023/09/08 06:04:40;;;;;;;12.07;11.57;;;;;;;;;;5080031;28;20040;-63
2023/09/08 06:07:05;;;;;;;11.90;11.40;;;;;;;;;;5080792;28;20290;-62
2023/09/08 06:09:30;;;;;;;12.07;11.57;;;;;;;;;;5081590;28;20118;-63
2023/09/08 06:11:55;;;;;;;12.07;11.57;;;;;;;;;;5083768;28;20040;-62
2023/09/08 06:14:21;;;;;;;12.27;11.77;;;;;;;;;;5082665;28;20755;-62
2023/09/08 06:16:46;;;;;;;12.10;11.60;;;;;;;;;;5078541;28;20084;-62
2023/09/08 06:19:12;;;;;;;12.30;11.80;;;;;;;;;;5080255;28;20024;-62
2023/09/08 06:21:37;;;;;;;12.05;11.55;;;;;;;;;;5080463;28;20133;-61
2023/09/08 06:24:03;;;;;;;12.30;11.80;;;;;;;;;;5086412;28;20099;-62
2023/09/08 06:26:28;;;;;;;12.18;11.68;;;;;;;;;;5085746;28;20028;-62
2023/09/08 06:28:53;;;;;;;12.20;11.70;;;;;;;;;;5081436;28;20100;-62
2023/09/08 06:31:19;;;;;;;12.13;11.63;;;;;;;;;;5085974;28;20737;-63
2023/09/08 06:33:44;;;;;;;11.95;11.45;;;;;;;;;;5083526;28;20054;-63
2023/09/08 06:36:09;;;;;;;11.70;11.20;;;;;;;;;;5083514;28;20025;-63
2023/09/08 06:38:35;;;;;;;11.77;11.27;;;;;;;;;;5081023;28;20348;-63
2023/09/08 06:41:00;;;;;;;11.77;11.27;;;;;;;;;;5078787;28;20276;-63
2023/09/08 06:43:26;;;;;;;12.07;11.57;;;;;;;;;;5085248;28;20737;-62
2023/09/08 06:45:51;;;;;;;12.00;11.50;;;;;;;;;;5085374;28;20498;-62
2023/09/08 06:48:16;;;;;;;12.10;11.60;;;;;;;;;;5085045;28;20518;-62
2023/09/08 06:50:42;;;;;;;11.98;11.48;;;;;;;;;;5078892;28;20029;-63
2023/09/08 06:53:07;;;;;;;12.18;11.68;;;;;;;;;;5084575;28;20036;-62
2023/09/08 06:55:33;;;;;;;12.02;11.52;;;;;;;;;;5087702;28;20035;-63
2023/09/08 06:57:58;;;;;;;11.98;11.48;;;;;;;;;;5077124;28;20051;-66
2023/09/08 07:00:23;;;;;;;12.00;11.50;;;;;;;;;;5084794;28;20104;-66
2023/09/08 07:02:52;;;;;;;11.95;11.45;;;;;;;;;;5090697;28;20499;-65
2023/09/08 07:05:17;;;;;;;11.75;11.25;;;;;;;;;;5084365;28;20047;-66
2023/09/08 07:07:42;;;;;;;11.88;11.38;;;;;;;;;;5087580;28;20016;-66
2023/09/08 07:10:08;;;;;;;12.18;11.68;;;;;;;;;;5086043;28;20024;-66
2023/09/08 07:12:34;;;;;;;11.93;11.43;;;;;;;;;;5082885;28;20980;-65
2023/09/08 07:15:00;;;;;;;12.18;11.68;;;;;;;;;;5086432;28;20146;-66
2023/09/08 07:17:25;;;;;;;12.10;11.60;;;;;;;;;;5083819;28;20439;-65
2023/09/08 07:19:50;;;;;;;12.27;11.77;;;;;;;;;;5084283;28;20024;-65
2023/09/08 07:22:16;;;;;;;12.15;11.65;;;;;;;;;;5083153;28;20496;-66
2023/09/08 07:24:41;;;;;;;12.05;11.55;;;;;;;;;;5086363;28;20103;-66
2023/09/08 07:27:06;;;;;;;12.00;11.50;;;;;;;;;;5080887;28;20053;-66
2023/09/08 07:29:32;;;;;;;12.23;11.73;;;;;;;;;;5086057;28;20541;-67
2023/09/08 07:31:57;;;;;;;11.90;11.40;;;;;;;;;;5080523;28;20035;-66
2023/09/08 07:34:24;;;;;;;12.15;11.65;;;;;;;;;;5084510;28;20063;-64
2023/09/08 07:36:50;;;;;;;12.13;11.63;;;;;;;;;;5086443;28;20486;-64
2023/09/08 07:39:15;;;;;;;12.37;11.83;;;;;;;;;;5086741;28;20131;-65
2023/09/08 07:41:40;;;;;;;12.60;12.00;;;;;;;;;;5088186;28;20352;-63
2023/09/08 07:44:06;;;;;;;12.10;11.60;;;;;;;;;;5082465;28;20655;-64
2023/09/08 07:46:32;;;;;;;12.60;12.00;;;;;;;;;;5083817;28;20091;-62
2023/09/08 07:48:58;;;;;;;12.27;11.77;;;;;;;;;;5085674;28;20020;-63
2023/09/08 07:51:23;;;;;;;12.20;11.70;;;;;;;;;;5083144;28;20019;-65
2023/09/08 07:53:49;;;;;;;12.20;11.70;;;;;;;;;;5078988;28;20024;-64
2023/09/08 07:56:14;;;;;;;12.05;11.55;;;;;;;;;;5079893;28;20043;-63
2023/09/08 07:58:39;;;;;;;12.10;11.60;;;;;;;;;;5082245;28;20020;-63
2023/09/08 08:01:05;;;;;;;12.18;11.68;;;;;;;;;;5081888;28;20047;-62
2023/09/08 08:03:30;;;;;;;11.77;11.27;;;;;;;;;;5081414;28;20048;-64
2023/09/08 08:05:56;;;;;;;12.65;12.05;;;;;;;;;;5079548;28;20276;-63
2023/09/08 08:08:21;;;;;;;12.18;11.68;;;;;;;;;;5081551;28;20012;-64
2023/09/08 08:10:47;;;;;;;12.18;11.68;;;;;;;;;;5080515;28;20376;-64
2023/09/08 08:13:12;;;;;;;12.27;11.77;;;;;;;;;;5083698;28;20127;-65
2023/09/08 08:15:38;;;;;;;12.00;11.50;;;;;;;;;;5083273;28;20028;-65
2023/09/08 08:18:06;;;;;;;12.05;11.55;;;;;;;;;;5083212;28;20041;-66
2023/09/08 08:20:35;;;;;;;12.10;11.60;;;;;;;;;;5075952;28;20017;-64
2023/09/08 08:23:01;;;;;;;12.10;11.60;;;;;;;;;;5082246;28;20032;-65
2023/09/08 08:25:26;;;;;;;12.07;11.57;;;;;;;;;;5083506;28;20032;-64
2023/09/08 08:27:52;;;;;;;12.05;11.55;;;;;;;;;;5084144;28;20088;-63
2023/09/08 08:30:17;;;;;;;11.80;11.30;;;;;;;;;;5081116;28;20048;-63
2023/09/08 08:32:42;;;;;;;11.85;11.35;;;;;;;;;;5082707;28;20330;-66
2023/09/08 08:35:08;;;;;;;12.15;11.65;;;;;;;;;;5081949;28;20017;-63
2023/09/08 08:37:33;;;;;;;12.10;11.60;;;;;;;;;;5079655;28;20318;-64
2023/09/08 08:39:58;;;;;;;12.07;11.57;;;;;;;;;;5086827;28;20268;-63
2023/09/08 08:42:30;;;;;;;12.57;11.97;;;;;;;;;;5084356;28;20268;-63
2023/09/08 08:44:55;;;;;;;12.63;12.02;;;;;;;;;;5084455;28;20277;-61
2023/09/08 08:47:21;;;;;;;11.85;11.35;;;;;;;;;;5078604;28;20166;-62
2023/09/08 08:49:48;;;;;;;12.57;11.98;;;;;;;;;;5079409;28;20058;-63
2023/09/08 08:52:14;;;;;;;12.13;11.63;;;;;;;;;;5084672;28;20024;-65
2023/09/08 08:54:40;;;;;;;11.93;11.43;;;;;;;;;;5083439;28;20024;-61
2023/09/08 08:57:06;;;;;;;12.15;11.65;;;;;;;;;;5078244;28;20021;-62
2023/09/08 08:59:31;;;;;;;12.70;12.10;;;;;;;;;;5079337;28;20025;-61
2023/09/08 09:02:01;;;;;;;12.60;12.00;;;;;;;;;;5080346;28;20016;-62
2023/09/08 09:04:27;;;;;;;12.20;11.70;;;;;;;;;;5076789;28;20449;-63
2023/09/08 09:06:52;;;;;;;12.60;12.00;;;;;;;;;;5086949;28;20062;-62
2023/09/08 09:09:18;;;;;;;11.98;11.48;;;;;;;;;;5083284;27;20364;-64
2023/09/08 09:11:43;;;;;;;12.32;11.82;;;;;;;;;;5083558;28;20062;-64
2023/09/08 09:14:09;;;;;;;12.55;11.95;;;;;;;;;;5076988;28;20025;-64
2023/09/08 09:16:44;;;;;;;12.52;11.93;;;;;;;;;;5081054;28;20074;-62
2023/09/08 09:19:16;;;;;;;12.07;11.57;;;;;;;;;;5078791;28;20056;-63
2023/09/08 09:21:42;;;;;;;12.40;11.82;;;;;;;;;;5078181;28;20028;-64
2023/09/08 09:24:07;;;;;;;12.30;11.80;;;;;;;;;;5084636;28;20116;-63
2023/09/08 09:26:33;;;;;;;12.40;11.85;;;;;;;;;;5082573;28;20268;-62
2023/09/08 09:29:01;;;;;;;12.32;11.80;;;;;;;;;;5075424;28;20534;-63
2023/09/08 09:31:27;;;;;;;12.20;11.70;;;;;;;;;;5084708;28;20093;-63
2023/09/08 09:34:05;;;;;;;11.90;11.40;;;;;;;;;;5079022;28;20422;-63
2023/09/08 09:36:31;;;;;;;12.10;11.60;;;;;;;;;;5080881;28;20058;-63
2023/09/08 09:39:00;;;;;;;12.30;11.80;;;;;;;;;;5076703;28;20036;-63
2023/09/08 09:41:27;;;;;;;12.93;12.32;;;;;;;;;;5083266;28;20073;-63
2023/09/08 09:43:52;;;;;;;12.05;11.55;;;;;;;;;;5083175;28;20028;-63
2023/09/08 09:46:20;;;;;;;12.13;11.63;;;;;;;;;;5083456;28;20026;-64
2023/09/08 09:48:45;;;;;;;12.00;11.50;;;;;;;;;;5081085;28;20043;-63
2023/09/08 09:51:17;;;;;;;12.40;11.85;;;;;;;;;;5084007;28;20495;-64
2023/09/08 09:53:42;;;;;;;12.30;11.80;;;;;;;;;;5080603;28;20028;-63
2023/09/08 09:56:08;;;;;;;12.13;11.63;;;;;;;;;;5080883;28;20838;-64
2023/09/08 09:58:34;;;;;;;12.20;11.70;;;;;;;;;;5084018;28;20546;-64
2023/09/08 10:01:00;;;;;;;12.18;11.68;;;;;;;;;;5082469;28;20030;-63
2023/09/08 10:03:26;;;;;;;12.57;11.98;;;;;;;;;;5080776;28;20033;-62
2023/09/08 10:05:52;;;;;;;12.00;11.50;;;;;;;;;;5079347;28;20024;-65
2023/09/08 10:08:17;;;;;;;12.60;12.00;;;;;;;;;;5083539;28;20020;-66
2023/09/08 10:10:45;;;;;;;12.10;11.60;;;;;;;;;;5075625;28;20609;-64
2023/09/08 10:13:12;;;;;;;11.95;11.45;;;;;;;;;;5080076;28;20043;-65
2023/09/08 10:15:37;;;;;;;12.57;11.98;;;;;;;;;;5078202;28;20039;-63
2023/09/08 10:18:04;;;;;;;12.35;11.80;;;;;;;;;;5081140;28;20024;-63
2023/09/08 10:20:31;;;;;;;12.75;12.15;;;;;;;;;;5080758;28;20024;-63
2023/09/08 10:23:01;;;;;;;12.02;11.52;;;;;;;;;;5084191;28;20020;-64
2023/09/08 10:25:29;;;;;;;12.45;11.88;;;;;;;;;;5082971;28;20043;-64
2023/09/08 10:27:55;;;;;;;12.05;11.55;;;;;;;;;;5078851;28;20043;-64
2023/09/08 10:30:21;;;;;;;12.32;11.77;;;;;;;;;;5079222;28;20031;-63
2023/09/08 10:32:49;;;;;;;12.80;12.20;;;;;;;;;;5079518;28;20024;-63
2023/09/08 10:35:17;;;;;;;12.60;12.00;;;;;;;;;;5080503;28;20032;-65
2023/09/08 10:37:42;;;;;;;11.63;11.13;;;;;;;;;;5082174;28;20516;-61
2023/09/08 10:40:21;;;;;;;11.15;10.65;;;;;;;;;;5077339;28;20097;-63
2023/09/08 10:42:46;;;;;;;11.50;11.00;;;;;;;;;;5079984;28;20057;-62
2023/09/08 10:45:18;;;;;;;12.05;11.55;;;;;;;;;;5074439;28;20025;-63
2023/09/08 10:47:46;;;;;;;11.85;11.35;;;;;;;;;;5080117;28;20028;-62
2023/09/08 10:50:32;;;;;;;11.65;11.15;;;;;;;;;;5076625;28;20098;-63
2023/09/08 10:53:26;;;;;;;11.80;11.30;;;;;;;;;;5081103;28;20053;-61
2023/09/08 10:55:53;;;;;;;12.10;11.60;;;;;;;;;;5075956;28;20494;-63
2023/09/08 10:58:19;;;;;;;11.85;11.35;;;;;;;;;;5076876;28;20088;-64
2023/09/08 11:00:46;;;;;;;11.98;11.48;;;;;;;;;;5079987;28;20050;-63
2023/09/08 11:03:11;;;;;;;11.43;10.93;;;;;;;;;;5081514;28;20139;-62
2023/09/08 11:05:37;;;;;;;11.93;11.43;;;;;;;;;;5085240;28;20107;-64
2023/09/08 11:08:03;;;;;;;11.65;11.15;;;;;;;;;;5084929;28;20735;-64
2023/09/08 11:10:30;;;;;;;12.30;11.75;;;;;;;;;;5075262;28;20043;-63
2023/09/08 11:12:55;;;;;;;12.05;11.55;;;;;;;;;;5081044;28;20161;-63
2023/09/08 11:15:21;;;;;;;12.10;11.60;;;;;;;;;;5081591;28;20115;-66
2023/09/08 11:17:50;;;;;;;12.23;11.73;;;;;;;;;;5077835;28;20103;-66
2023/09/08 11:20:16;;;;;;;12.48;11.88;;;;;;;;;;5080644;28;20069;-67
2023/09/08 11:22:41;;;;;;;12.43;11.85;;;;;;;;;;5081751;28;20109;-63
2023/09/08 11:25:07;;;;;;;12.70;12.10;;;;;;;;;;5079575;28;20020;-63
2023/09/08 11:27:33;;;;;;;12.15;11.65;;;;;;;;;;5078991;28;20032;-63
2023/09/08 11:29:58;;;;;;;11.90;11.40;;;;;;;;;;5073891;28;20038;-63
2023/09/08 11:32:24;;;;;;;12.07;11.57;;;;;;;;;;5078845;28;20036;-63
2023/09/08 11:34:50;;;;;;;11.90;11.40;;;;;;;;;;5078612;28;20071;-64
2023/09/08 11:37:17;;;;;;;12.50;11.90;;;;;;;;;;5081153;28;20031;-62
2023/09/08 11:39:43;;;;;;;12.27;11.77;;;;;;;;;;5083776;28;20391;-61
2023/09/08 11:42:09;;;;;;;12.35;11.82;;;;;;;;;;5084725;28;20017;-62
2023/09/08 11:44:35;;;;;;;12.50;11.90;;;;;;;;;;5081155;28;20032;-63
2023/09/08 11:47:01;;;;;;;12.57;11.98;;;;;;;;;;5084431;28;20019;-64
2023/09/08 11:49:26;;;;;;;12.20;11.70;;;;;;;;;;5082211;28;20095;-62
2023/09/08 11:51:52;;;;;;;12.35;11.82;;;;;;;;;;5086336;28;20009;-62
2023/09/08 11:54:17;;;;;;;12.55;11.95;;;;;;;;;;5103026;28;20110;-62
2023/09/08 11:56:43;;;;;;;12.18;11.68;;;;;;;;;;5087582;28;20020;-64
2023/09/08 11:59:08;;;;;;;11.88;11.38;;;;;;;;;;5080961;28;20017;-63
2023/09/08 12:01:33;;;;;;;11.75;11.25;;;;;;;;;;5075142;28;20024;-65
2023/09/08 12:03:59;;;;;;;12.13;11.63;;;;;;;;;;5084862;28;20084;-62
2023/09/08 12:06:25;;;;;;;12.48;11.88;;;;;;;;;;5081793;28;20037;-62
2023/09/08 12:08:51;;;;;;;12.60;12.00;;;;;;;;;;5078285;28;20063;-64
2023/09/08 12:11:16;;;;;;;12.00;11.50;;;;;;;;;;5083453;28;20074;-63
2023/09/08 12:13:41;;;;;;;12.15;11.65;;;;;;;;;;5080651;28;20027;-63
2023/09/08 12:16:25;;;;;;;12.20;11.70;;;;;;;;;;5081435;28;20115;-63
2023/09/08 12:18:50;;;;;;;12.18;11.68;;;;;;;;;;5078599;28;20391;-63
2023/09/08 12:21:16;;;;;;;11.98;11.48;;;;;;;;;;5080372;28;20027;-64
2023/09/08 12:23:51;;;;;;;12.45;11.88;;;;;;;;;;5082431;28;20376;-63
2023/09/08 12:26:16;;;;;;;12.40;11.80;;;;;;;;;;5081967;28;20029;-65
2023/09/08 12:28:43;;;;;;;12.27;11.75;;;;;;;;;;5082797;28;20376;-63
2023/09/08 12:31:09;;;;;;;11.70;11.20;;;;;;;;;;5079002;28;20441;-63
2023/09/08 12:33:35;;;;;;;12.63;12.02;;;;;;;;;;5081497;28;20032;-63
2023/09/08 12:36:09;;;;;;;11.95;11.45;;;;;;;;;;5081726;28;20036;-63
2023/09/08 12:38:34;;;;;;;12.48;11.88;;;;;;;;;;5081174;28;20060;-63
2023/09/08 12:41:00;;;;;;;11.60;11.10;;;;;;;;;;5079409;28;20063;-63
2023/09/08 12:43:25;;;;;;;11.90;11.40;;;;;;;;;;5082520;28;20024;-63
2023/09/08 12:45:50;;;;;;;11.82;11.32;;;;;;;;;;5081910;28;20222;-63
2023/09/08 12:48:16;;;;;;;11.90;11.40;;;;;;;;;;5079538;28;20483;-64
2023/09/08 12:50:41;;;;;;;11.70;11.20;;;;;;;;;;5082952;28;20020;-64
2023/09/08 12:53:06;;;;;;;12.40;11.82;;;;;;;;;;5081308;28;20021;-64
2023/09/08 12:55:32;;;;;;;12.25;11.75;;;;;;;;;;5079820;28;20386;-65
2023/09/08 12:57:57;;;;;;;11.60;11.10;;;;;;;;;;5086667;28;20106;-63
2023/09/08 13:00:23;;;;;;;12.05;11.55;;;;;;;;;;5082623;28;20017;-64
2023/09/08 13:02:48;;;;;;;12.02;11.52;;;;;;;;;;5080318;28;20020;-63
2023/09/08 13:05:13;;;;;;;11.77;11.27;;;;;;;;;;5084582;28;20051;-64
2023/09/08 13:07:39;;;;;;;11.70;11.20;;;;;;;;;;5079990;28;20479;-65
2023/09/08 13:10:05;;;;;;;12.43;11.82;;;;;;;;;;5082929;28;20047;-64
2023/09/08 13:12:31;;;;;;;11.80;11.30;;;;;;;;;;5080952;28;20523;-64
2023/09/08 13:14:56;;;;;;;11.80;11.30;;;;;;;;;;5083535;28;20031;-65
2023/09/08 13:17:21;;;;;;;11.70;11.20;;;;;;;;;;5083429;28;20390;-64
2023/09/08 13:19:47;;;;;;;11.88;11.38;;;;;;;;;;5078778;28;20028;-65
2023/09/08 13:22:13;;;;;;;11.98;11.48;;;;;;;;;;5079724;28;20065;-64
2023/09/08 13:24:39;;;;;;;11.85;11.35;;;;;;;;;;5083480;28;20035;-66
2023/09/08 13:27:04;;;;;;;12.02;11.52;;;;;;;;;;5082855;28;20031;-66
2023/09/08 13:29:30;;;;;;;12.57;11.98;;;;;;;;;;5083240;28;20462;-63
2023/09/08 13:31:55;;;;;;;12.07;11.57;;;;;;;;;;5082512;28;20020;-64
2023/09/08 13:34:21;;;;;;;12.55;11.95;;;;;;;;;;5079949;28;20499;-65
2023/09/08 13:36:46;;;;;;;12.38;11.82;;;;;;;;;;5076573;28;20099;-66
2023/09/08 13:39:12;;;;;;;12.23;11.73;;;;;;;;;;5086582;28;20441;-68
2023/09/08 13:41:51;;;;;;;13.02;12.43;;;;;;;;;;5081803;28;20016;-67
2023/09/08 13:44:17;;;;;;;12.02;11.52;;;;;;;;;;5078222;28;20067;-67
2023/09/08 13:46:43;;;;;;;12.13;11.63;;;;;;;;;;5081916;28;20051;-67
2023/09/08 13:49:08;;;;;;;12.18;11.68;;;;;;;;;;5076350;28;20071;-64
2023/09/08 13:51:34;;;;;;;12.45;11.88;;;;;;;;;;5075272;28;20107;-65
2023/09/08 13:53:59;;;;;;;12.20;11.70;;;;;;;;;;5074950;28;20028;-64
2023/09/08 13:56:24;;;;;;;12.60;12.00;;;;;;;;;;5077685;28;20250;-64
2023/09/08 13:58:50;;;;;;;11.60;11.10;;;;;;;;;;5076102;28;24894;-63
2023/09/08 14:01:15;;;;;;;12.00;11.50;;;;;;;;;;5075232;28;20518;-64
2023/09/08 14:03:40;;;;;;;12.60;12.00;;;;;;;;;;5074755;28;20147;-64
2023/09/08 14:06:05;;;;;;;12.45;11.88;;;;;;;;;;5077859;28;20036;-65
2023/09/08 14:08:31;;;;;;;12.20;11.70;;;;;;;;;;5077549;28;20024;-63